sensor_id;sensor_type;location;lat;lon;timestamp;P1;durP1;ratioP1;P2;durP2;ratioP2
35462;SDS011;21578;47.892;9.970;2022-08-19T00:00:12;33.03;;;13.80;;
35462;SDS011;21578;47.892;9.970;2022-08-19T00:05:02;66.27;;;14.13;;
35462;SDS011;21578;47.892;9.970;2022-08-19T00:09:49;33.20;;;13.63;;
35462;SDS011;21578;47.892;9.970;2022-08-19T00:14:37;13.33;;;12.03;;
35462;SDS011;21578;47.892;9.970;2022-08-19T00:19:24;13.43;;;12.13;;
35462;SDS011;21578;47.892;9.970;2022-08-19T00:24:13;18.13;;;11.90;;
35462;SDS011;21578;47.892;9.970;2022-08-19T00:29:00;12.77;;;11.57;;
35462;SDS011;21578;47.892;9.970;2022-08-19T00:33:47;13.43;;;12.07;;
35462;SDS011;21578;47.892;9.970;2022-08-19T00:38:36;13.53;;;12.20;;
35462;SDS011;21578;47.892;9.970;2022-08-19T00:43:29;10.53;;;9.60;;
35462;SDS011;21578;47.892;9.970;2022-08-19T00:48:16;8.83;;;8.03;;
35462;SDS011;21578;47.892;9.970;2022-08-19T00:53:03;7.30;;;6.70;;
35462;SDS011;21578;47.892;9.970;2022-08-19T00:57:51;7.43;;;6.83;;
35462;SDS011;21578;47.892;9.970;2022-08-19T01:02:42;7.23;;;6.63;;
35462;SDS011;21578;47.892;9.970;2022-08-19T01:07:29;9.80;;;9.00;;
35462;SDS011;21578;47.892;9.970;2022-08-19T01:12:16;11.40;;;10.40;;
35462;SDS011;21578;47.892;9.970;2022-08-19T01:17:04;12.87;;;11.50;;
35462;SDS011;21578;47.892;9.970;2022-08-19T01:21:55;12.17;;;10.97;;
35462;SDS011;21578;47.892;9.970;2022-08-19T01:26:47;13.47;;;12.17;;
35462;SDS011;21578;47.892;9.970;2022-08-19T01:31:34;14.90;;;13.40;;
35462;SDS011;21578;47.892;9.970;2022-08-19T01:36:23;13.70;;;12.43;;
35462;SDS011;21578;47.892;9.970;2022-08-19T01:41:12;15.90;;;14.37;;
35462;SDS011;21578;47.892;9.970;2022-08-19T01:46:04;16.93;;;15.33;;
35462;SDS011;21578;47.892;9.970;2022-08-19T01:50:51;16.53;;;14.90;;
35462;SDS011;21578;47.892;9.970;2022-08-19T01:55:38;16.40;;;14.80;;
35462;SDS011;21578;47.892;9.970;2022-08-19T02:00:28;16.00;;;14.30;;
35462;SDS011;21578;47.892;9.970;2022-08-19T02:05:18;16.03;;;14.33;;
35462;SDS011;21578;47.892;9.970;2022-08-19T02:10:07;15.57;;;14.03;;
35462;SDS011;21578;47.892;9.970;2022-08-19T02:14:56;16.07;;;14.23;;
35462;SDS011;21578;47.892;9.970;2022-08-19T02:19:42;15.33;;;13.87;;
35462;SDS011;21578;47.892;9.970;2022-08-19T02:24:31;16.87;;;15.27;;
35462;SDS011;21578;47.892;9.970;2022-08-19T02:29:18;16.70;;;15.00;;
35462;SDS011;21578;47.892;9.970;2022-08-19T02:34:04;16.87;;;15.07;;
35462;SDS011;21578;47.892;9.970;2022-08-19T02:38:51;13.97;;;12.67;;
35462;SDS011;21578;47.892;9.970;2022-08-19T02:43:40;13.70;;;12.50;;
35462;SDS011;21578;47.892;9.970;2022-08-19T02:48:27;14.87;;;13.37;;
35462;SDS011;21578;47.892;9.970;2022-08-19T02:53:14;19.10;;;17.23;;
35462;SDS011;21578;47.892;9.970;2022-08-19T02:58:01;21.40;;;19.17;;
35462;SDS011;21578;47.892;9.970;2022-08-19T03:02:49;23.07;;;20.60;;
35462;SDS011;21578;47.892;9.970;2022-08-19T03:07:36;26.27;;;23.57;;
35462;SDS011;21578;47.892;9.970;2022-08-19T03:12:23;27.80;;;24.30;;
35462;SDS011;21578;47.892;9.970;2022-08-19T03:17:10;26.57;;;23.73;;
35462;SDS011;21578;47.892;9.970;2022-08-19T03:21:59;28.17;;;25.17;;
35462;SDS011;21578;47.892;9.970;2022-08-19T03:26:47;27.93;;;24.97;;
35462;SDS011;21578;47.892;9.970;2022-08-19T03:31:36;27.80;;;24.50;;
35462;SDS011;21578;47.892;9.970;2022-08-19T03:36:26;24.80;;;22.23;;
35462;SDS011;21578;47.892;9.970;2022-08-19T03:41:15;26.03;;;23.27;;
35462;SDS011;21578;47.892;9.970;2022-08-19T03:46:04;25.10;;;22.50;;
35462;SDS011;21578;47.892;9.970;2022-08-19T03:50:53;23.90;;;21.37;;
35462;SDS011;21578;47.892;9.970;2022-08-19T03:55:40;24.37;;;21.87;;
35462;SDS011;21578;47.892;9.970;2022-08-19T04:00:28;24.00;;;21.50;;
35462;SDS011;21578;47.892;9.970;2022-08-19T04:05:15;23.90;;;21.30;;
35462;SDS011;21578;47.892;9.970;2022-08-19T04:10:03;24.70;;;22.10;;
35462;SDS011;21578;47.892;9.970;2022-08-19T04:14:50;23.57;;;21.03;;
35462;SDS011;21578;47.892;9.970;2022-08-19T04:19:38;23.27;;;20.77;;
35462;SDS011;21578;47.892;9.970;2022-08-19T04:24:25;23.03;;;20.63;;
35462;SDS011;21578;47.892;9.970;2022-08-19T04:29:14;24.33;;;21.57;;
35462;SDS011;21578;47.892;9.970;2022-08-19T04:34:02;25.97;;;23.17;;
35462;SDS011;21578;47.892;9.970;2022-08-19T04:38:54;26.63;;;23.40;;
35462;SDS011;21578;47.892;9.970;2022-08-19T04:43:42;26.10;;;22.47;;
35462;SDS011;21578;47.892;9.970;2022-08-19T04:48:33;25.53;;;22.80;;
35462;SDS011;21578;47.892;9.970;2022-08-19T04:53:21;23.70;;;21.03;;
35462;SDS011;21578;47.892;9.970;2022-08-19T04:58:09;23.30;;;19.93;;
35462;SDS011;21578;47.892;9.970;2022-08-19T05:02:56;20.67;;;18.53;;
35462;SDS011;21578;47.892;9.970;2022-08-19T05:07:43;24.37;;;19.50;;
35462;SDS011;21578;47.892;9.970;2022-08-19T05:12:29;20.50;;;17.80;;
35462;SDS011;21578;47.892;9.970;2022-08-19T05:17:18;18.37;;;16.47;;
35462;SDS011;21578;47.892;9.970;2022-08-19T05:22:05;20.37;;;18.13;;
35462;SDS011;21578;47.892;9.970;2022-08-19T05:27:09;21.23;;;18.70;;
35462;SDS011;21578;47.892;9.970;2022-08-19T05:31:56;20.73;;;18.53;;
35462;SDS011;21578;47.892;9.970;2022-08-19T05:36:45;19.47;;;17.40;;
35462;SDS011;21578;47.892;9.970;2022-08-19T05:41:32;18.17;;;16.27;;
35462;SDS011;21578;47.892;9.970;2022-08-19T05:46:19;18.13;;;16.33;;
35462;SDS011;21578;47.892;9.970;2022-08-19T05:51:06;16.93;;;15.13;;
35462;SDS011;21578;47.892;9.970;2022-08-19T05:55:55;12.70;;;10.73;;
35462;SDS011;21578;47.892;9.970;2022-08-19T06:00:42;12.93;;;11.57;;
35462;SDS011;21578;47.892;9.970;2022-08-19T06:05:30;18.53;;;14.73;;
35462;SDS011;21578;47.892;9.970;2022-08-19T06:10:17;16.70;;;13.43;;
35462;SDS011;21578;47.892;9.970;2022-08-19T06:15:07;19.57;;;16.17;;
35462;SDS011;21578;47.892;9.970;2022-08-19T06:19:57;21.57;;;18.27;;
35462;SDS011;21578;47.892;9.970;2022-08-19T06:24:44;21.63;;;17.30;;
35462;SDS011;21578;47.892;9.970;2022-08-19T06:29:32;21.03;;;16.87;;
35462;SDS011;21578;47.892;9.970;2022-08-19T06:34:21;22.03;;;17.50;;
35462;SDS011;21578;47.892;9.970;2022-08-19T06:39:09;16.03;;;14.27;;
35462;SDS011;21578;47.892;9.970;2022-08-19T06:43:57;16.57;;;14.53;;
35462;SDS011;21578;47.892;9.970;2022-08-19T06:48:44;16.53;;;14.50;;
35462;SDS011;21578;47.892;9.970;2022-08-19T06:53:33;16.07;;;13.50;;
35462;SDS011;21578;47.892;9.970;2022-08-19T06:58:20;14.17;;;12.67;;
35462;SDS011;21578;47.892;9.970;2022-08-19T07:03:07;13.57;;;11.20;;
35462;SDS011;21578;47.892;9.970;2022-08-19T07:07:53;12.20;;;10.53;;
35462;SDS011;21578;47.892;9.970;2022-08-19T07:12:42;14.77;;;11.80;;
35462;SDS011;21578;47.892;9.970;2022-08-19T07:17:29;13.50;;;11.80;;
35462;SDS011;21578;47.892;9.970;2022-08-19T07:22:17;15.83;;;13.90;;
35462;SDS011;21578;47.892;9.970;2022-08-19T07:27:06;16.63;;;13.33;;
35462;SDS011;21578;47.892;9.970;2022-08-19T07:31:56;19.83;;;16.33;;
35462;SDS011;21578;47.892;9.970;2022-08-19T07:36:44;23.37;;;18.83;;
35462;SDS011;21578;47.892;9.970;2022-08-19T07:41:31;28.77;;;21.33;;
35462;SDS011;21578;47.892;9.970;2022-08-19T07:46:18;27.47;;;21.60;;
35462;SDS011;21578;47.892;9.970;2022-08-19T07:51:07;34.23;;;24.43;;
35462;SDS011;21578;47.892;9.970;2022-08-19T07:55:55;33.47;;;26.00;;
35462;SDS011;21578;47.892;9.970;2022-08-19T08:00:47;34.33;;;26.10;;
35462;SDS011;21578;47.892;9.970;2022-08-19T08:05:35;33.93;;;25.33;;
35462;SDS011;21578;47.892;9.970;2022-08-19T08:10:41;37.20;;;24.73;;
35462;SDS011;21578;47.892;9.970;2022-08-19T08:15:28;32.93;;;25.00;;
35462;SDS011;21578;47.892;9.970;2022-08-19T08:20:15;34.97;;;27.03;;
35462;SDS011;21578;47.892;9.970;2022-08-19T08:25:03;37.57;;;26.50;;
35462;SDS011;21578;47.892;9.970;2022-08-19T08:29:53;33.63;;;25.67;;
35462;SDS011;21578;47.892;9.970;2022-08-19T08:34:40;31.77;;;24.23;;
35462;SDS011;21578;47.892;9.970;2022-08-19T08:39:27;33.80;;;25.37;;
35462;SDS011;21578;47.892;9.970;2022-08-19T08:44:15;29.07;;;23.07;;
35462;SDS011;21578;47.892;9.970;2022-08-19T08:49:10;29.97;;;23.27;;
35462;SDS011;21578;47.892;9.970;2022-08-19T08:54:11;31.97;;;23.97;;
35462;SDS011;21578;47.892;9.970;2022-08-19T08:59:00;30.67;;;24.17;;
35462;SDS011;21578;47.892;9.970;2022-08-19T09:03:51;28.40;;;23.00;;
35462;SDS011;21578;47.892;9.970;2022-08-19T09:08:43;28.30;;;23.30;;
35462;SDS011;21578;47.892;9.970;2022-08-19T09:13:36;32.37;;;25.30;;
35462;SDS011;21578;47.892;9.970;2022-08-19T09:18:38;29.43;;;23.93;;
35462;SDS011;21578;47.892;9.970;2022-08-19T09:23:28;31.27;;;24.27;;
35462;SDS011;21578;47.892;9.970;2022-08-19T09:28:17;33.53;;;24.83;;
35462;SDS011;21578;47.892;9.970;2022-08-19T09:33:07;32.37;;;25.57;;
35462;SDS011;21578;47.892;9.970;2022-08-19T09:37:55;35.70;;;27.30;;
35462;SDS011;21578;47.892;9.970;2022-08-19T09:42:43;33.90;;;27.43;;
35462;SDS011;21578;47.892;9.970;2022-08-19T09:47:33;36.27;;;28.13;;
35462;SDS011;21578;47.892;9.970;2022-08-19T09:52:22;39.53;;;29.80;;
35462;SDS011;21578;47.892;9.970;2022-08-19T09:57:09;38.07;;;29.60;;
35462;SDS011;21578;47.892;9.970;2022-08-19T10:01:56;38.47;;;30.97;;
35462;SDS011;21578;47.892;9.970;2022-08-19T10:06:45;38.63;;;31.00;;
35462;SDS011;21578;47.892;9.970;2022-08-19T10:11:32;39.10;;;29.97;;
35462;SDS011;21578;47.892;9.970;2022-08-19T10:16:22;38.33;;;30.47;;
35462;SDS011;21578;47.892;9.970;2022-08-19T10:21:11;39.53;;;30.67;;
35462;SDS011;21578;47.892;9.970;2022-08-19T10:26:00;37.47;;;28.97;;
35462;SDS011;21578;47.892;9.970;2022-08-19T10:30:48;38.20;;;29.93;;
35462;SDS011;21578;47.892;9.970;2022-08-19T10:35:35;35.37;;;28.23;;
35462;SDS011;21578;47.892;9.970;2022-08-19T10:40:22;37.03;;;29.37;;
35462;SDS011;21578;47.892;9.970;2022-08-19T10:45:11;34.73;;;28.27;;
35462;SDS011;21578;47.892;9.970;2022-08-19T10:49:58;35.03;;;28.77;;
35462;SDS011;21578;47.892;9.970;2022-08-19T10:55:03;37.80;;;29.70;;
35462;SDS011;21578;47.892;9.970;2022-08-19T11:00:11;36.67;;;29.03;;
35462;SDS011;21578;47.892;9.970;2022-08-19T11:04:59;34.00;;;28.10;;
35462;SDS011;21578;47.892;9.970;2022-08-19T11:09:46;29.93;;;25.73;;
35462;SDS011;21578;47.892;9.970;2022-08-19T11:14:33;31.77;;;25.60;;
35462;SDS011;21578;47.892;9.970;2022-08-19T11:19:22;28.97;;;25.17;;
35462;SDS011;21578;47.892;9.970;2022-08-19T11:24:09;26.67;;;23.77;;
35462;SDS011;21578;47.892;9.970;2022-08-19T11:28:58;27.13;;;23.40;;
35462;SDS011;21578;47.892;9.970;2022-08-19T11:33:46;26.13;;;22.27;;
35462;SDS011;21578;47.892;9.970;2022-08-19T11:38:37;23.40;;;20.17;;
35462;SDS011;21578;47.892;9.970;2022-08-19T11:43:24;22.17;;;19.63;;
35462;SDS011;21578;47.892;9.970;2022-08-19T11:48:12;20.17;;;18.03;;
35462;SDS011;21578;47.892;9.970;2022-08-19T11:52:59;20.37;;;17.47;;
35462;SDS011;21578;47.892;9.970;2022-08-19T11:57:47;18.60;;;16.13;;
35462;SDS011;21578;47.892;9.970;2022-08-19T12:02:34;17.27;;;15.57;;
35462;SDS011;21578;47.892;9.970;2022-08-19T12:07:21;15.57;;;13.97;;
35462;SDS011;21578;47.892;9.970;2022-08-19T12:12:08;16.77;;;14.20;;
35462;SDS011;21578;47.892;9.970;2022-08-19T12:16:56;15.40;;;13.77;;
35462;SDS011;21578;47.892;9.970;2022-08-19T12:21:43;15.57;;;13.97;;
35462;SDS011;21578;47.892;9.970;2022-08-19T12:26:30;14.87;;;13.33;;
35462;SDS011;21578;47.892;9.970;2022-08-19T12:31:17;14.83;;;13.33;;
35462;SDS011;21578;47.892;9.970;2022-08-19T12:36:08;15.40;;;13.80;;
35462;SDS011;21578;47.892;9.970;2022-08-19T12:40:56;14.77;;;12.57;;
35462;SDS011;21578;47.892;9.970;2022-08-19T12:45:43;13.80;;;12.33;;
35462;SDS011;21578;47.892;9.970;2022-08-19T12:50:30;13.23;;;11.87;;
35462;SDS011;21578;47.892;9.970;2022-08-19T12:55:19;13.47;;;12.07;;
35462;SDS011;21578;47.892;9.970;2022-08-19T13:00:07;14.20;;;12.70;;
35462;SDS011;21578;47.892;9.970;2022-08-19T13:04:57;13.83;;;12.43;;
35462;SDS011;21578;47.892;9.970;2022-08-19T13:09:44;15.70;;;14.10;;
35462;SDS011;21578;47.892;9.970;2022-08-19T13:14:32;15.57;;;13.97;;
35462;SDS011;21578;47.892;9.970;2022-08-19T13:19:20;15.07;;;13.47;;
35462;SDS011;21578;47.892;9.970;2022-08-19T13:24:08;15.97;;;14.27;;
35462;SDS011;21578;47.892;9.970;2022-08-19T13:28:55;16.40;;;12.97;;
35462;SDS011;21578;47.892;9.970;2022-08-19T13:34:01;15.77;;;13.77;;
35462;SDS011;21578;47.892;9.970;2022-08-19T13:38:48;15.67;;;14.07;;
35462;SDS011;21578;47.892;9.970;2022-08-19T13:43:35;14.63;;;13.23;;
35462;SDS011;21578;47.892;9.970;2022-08-19T13:48:22;15.40;;;13.70;;
35462;SDS011;21578;47.892;9.970;2022-08-19T13:53:12;15.50;;;13.90;;
35462;SDS011;21578;47.892;9.970;2022-08-19T13:58:00;17.37;;;14.37;;
35462;SDS011;21578;47.892;9.970;2022-08-19T14:02:50;15.40;;;13.90;;
35462;SDS011;21578;47.892;9.970;2022-08-19T14:07:37;12.60;;;11.30;;
35462;SDS011;21578;47.892;9.970;2022-08-19T14:12:26;10.00;;;9.10;;
35462;SDS011;21578;47.892;9.970;2022-08-19T14:17:12;10.83;;;9.83;;
35462;SDS011;21578;47.892;9.970;2022-08-19T14:22:00;8.33;;;7.63;;
35462;SDS011;21578;47.892;9.970;2022-08-19T14:26:47;8.53;;;7.80;;
35462;SDS011;21578;47.892;9.970;2022-08-19T14:31:35;7.60;;;7.00;;
35462;SDS011;21578;47.892;9.970;2022-08-19T14:36:24;8.93;;;8.13;;
35462;SDS011;21578;47.892;9.970;2022-08-19T14:41:12;10.57;;;9.47;;
35462;SDS011;21578;47.892;9.970;2022-08-19T14:46:02;8.87;;;8.10;;
35462;SDS011;21578;47.892;9.970;2022-08-19T14:50:50;6.83;;;6.23;;
35462;SDS011;21578;47.892;9.970;2022-08-19T14:55:39;7.20;;;6.60;;
35462;SDS011;21578;47.892;9.970;2022-08-19T15:00:27;4.70;;;4.40;;
35462;SDS011;21578;47.892;9.970;2022-08-19T15:05:14;7.40;;;6.80;;
35462;SDS011;21578;47.892;9.970;2022-08-19T15:10:04;12.60;;;11.50;;
35462;SDS011;21578;47.892;9.970;2022-08-19T15:14:52;14.47;;;13.07;;
35462;SDS011;21578;47.892;9.970;2022-08-19T15:19:39;16.37;;;14.67;;
35462;SDS011;21578;47.892;9.970;2022-08-19T15:24:26;17.07;;;15.20;;
35462;SDS011;21578;47.892;9.970;2022-08-19T15:29:15;18.57;;;16.77;;
35462;SDS011;21578;47.892;9.970;2022-08-19T15:34:02;20.43;;;18.33;;
35462;SDS011;21578;47.892;9.970;2022-08-19T15:38:51;22.40;;;19.53;;
35462;SDS011;21578;47.892;9.970;2022-08-19T15:43:38;23.47;;;21.07;;
35462;SDS011;21578;47.892;9.970;2022-08-19T15:48:29;24.13;;;21.53;;
35462;SDS011;21578;47.892;9.970;2022-08-19T15:53:16;23.93;;;21.53;;
35462;SDS011;21578;47.892;9.970;2022-08-19T15:58:03;22.03;;;19.83;;
35462;SDS011;21578;47.892;9.970;2022-08-19T16:03:09;20.73;;;18.63;;
35462;SDS011;21578;47.892;9.970;2022-08-19T16:08:18;21.27;;;19.07;;
35462;SDS011;21578;47.892;9.970;2022-08-19T16:13:05;22.47;;;20.10;;
35462;SDS011;21578;47.892;9.970;2022-08-19T16:17:54;23.97;;;21.50;;
35462;SDS011;21578;47.892;9.970;2022-08-19T16:22:43;22.17;;;20.07;;
35462;SDS011;21578;47.892;9.970;2022-08-19T16:27:31;26.63;;;23.93;;
35462;SDS011;21578;47.892;9.970;2022-08-19T16:32:18;26.10;;;23.40;;
35462;SDS011;21578;47.892;9.970;2022-08-19T16:37:05;27.57;;;24.77;;
35462;SDS011;21578;47.892;9.970;2022-08-19T16:41:53;27.00;;;24.20;;
35462;SDS011;21578;47.892;9.970;2022-08-19T16:46:42;25.77;;;23.17;;
35462;SDS011;21578;47.892;9.970;2022-08-19T16:51:31;29.53;;;26.17;;
35462;SDS011;21578;47.892;9.970;2022-08-19T16:56:18;26.87;;;24.07;;
35462;SDS011;21578;47.892;9.970;2022-08-19T17:01:06;28.30;;;25.17;;
35462;SDS011;21578;47.892;9.970;2022-08-19T17:05:57;26.37;;;23.57;;
35462;SDS011;21578;47.892;9.970;2022-08-19T17:10:47;24.90;;;22.20;;
35462;SDS011;21578;47.892;9.970;2022-08-19T17:15:35;25.80;;;23.07;;
35462;SDS011;21578;47.892;9.970;2022-08-19T17:20:22;26.40;;;23.60;;
35462;SDS011;21578;47.892;9.970;2022-08-19T17:25:10;25.10;;;22.40;;
35462;SDS011;21578;47.892;9.970;2022-08-19T17:29:57;25.60;;;22.83;;
35462;SDS011;21578;47.892;9.970;2022-08-19T17:34:44;24.87;;;22.27;;
35462;SDS011;21578;47.892;9.970;2022-08-19T17:39:31;25.73;;;23.10;;
35462;SDS011;21578;47.892;9.970;2022-08-19T17:44:20;25.43;;;22.70;;
35462;SDS011;21578;47.892;9.970;2022-08-19T17:49:07;28.17;;;25.27;;
35462;SDS011;21578;47.892;9.970;2022-08-19T17:53:54;27.43;;;24.67;;
35462;SDS011;21578;47.892;9.970;2022-08-19T17:58:41;27.47;;;24.53;;
35462;SDS011;21578;47.892;9.970;2022-08-19T18:03:29;27.13;;;24.37;;
35462;SDS011;21578;47.892;9.970;2022-08-19T18:08:16;27.00;;;24.10;;
35462;SDS011;21578;47.892;9.970;2022-08-19T18:13:03;28.27;;;25.17;;
35462;SDS011;21578;47.892;9.970;2022-08-19T18:17:50;26.03;;;23.33;;
35462;SDS011;21578;47.892;9.970;2022-08-19T18:22:40;26.40;;;23.70;;
35462;SDS011;21578;47.892;9.970;2022-08-19T18:27:28;26.70;;;23.80;;
35462;SDS011;21578;47.892;9.970;2022-08-19T18:32:15;28.00;;;25.03;;
35462;SDS011;21578;47.892;9.970;2022-08-19T18:37:04;26.90;;;24.17;;
35462;SDS011;21578;47.892;9.970;2022-08-19T18:41:52;24.70;;;22.00;;
35462;SDS011;21578;47.892;9.970;2022-08-19T18:46:56;26.07;;;22.37;;
35462;SDS011;21578;47.892;9.970;2022-08-19T18:52:06;24.27;;;21.27;;
35462;SDS011;21578;47.892;9.970;2022-08-19T18:56:54;23.93;;;21.43;;
35462;SDS011;21578;47.892;9.970;2022-08-19T19:01:42;23.73;;;21.20;;
35462;SDS011;21578;47.892;9.970;2022-08-19T19:06:35;25.70;;;22.90;;
35462;SDS011;21578;47.892;9.970;2022-08-19T19:11:26;29.80;;;25.57;;
35462;SDS011;21578;47.892;9.970;2022-08-19T19:16:15;31.77;;;27.23;;
35462;SDS011;21578;47.892;9.970;2022-08-19T19:21:03;34.50;;;27.83;;
35462;SDS011;21578;47.892;9.970;2022-08-19T19:25:50;33.37;;;27.53;;
35462;SDS011;21578;47.892;9.970;2022-08-19T19:30:37;32.50;;;27.00;;
35462;SDS011;21578;47.892;9.970;2022-08-19T19:35:26;30.67;;;27.13;;
35462;SDS011;21578;47.892;9.970;2022-08-19T19:40:14;13.77;;;12.43;;
35462;SDS011;21578;47.892;9.970;2022-08-19T19:45:01;12.50;;;11.20;;
35462;SDS011;21578;47.892;9.970;2022-08-19T19:49:48;7.63;;;6.67;;
35462;SDS011;21578;47.892;9.970;2022-08-19T19:54:37;6.50;;;5.83;;
35462;SDS011;21578;47.892;9.970;2022-08-19T19:59:25;8.80;;;7.67;;
35462;SDS011;21578;47.892;9.970;2022-08-19T20:04:12;10.07;;;9.07;;
35462;SDS011;21578;47.892;9.970;2022-08-19T20:08:59;18.40;;;16.43;;
35462;SDS011;21578;47.892;9.970;2022-08-19T20:13:55;27.43;;;23.80;;
35462;SDS011;21578;47.892;9.970;2022-08-19T20:18:45;29.13;;;25.87;;
35462;SDS011;21578;47.892;9.970;2022-08-19T20:23:32;36.73;;;31.60;;
35462;SDS011;21578;47.892;9.970;2022-08-19T20:28:19;42.33;;;33.97;;
35462;SDS011;21578;47.892;9.970;2022-08-19T20:33:08;42.90;;;35.30;;
35462;SDS011;21578;47.892;9.970;2022-08-19T20:37:55;42.43;;;35.50;;
35462;SDS011;21578;47.892;9.970;2022-08-19T20:42:42;40.53;;;34.97;;
35462;SDS011;21578;47.892;9.970;2022-08-19T20:47:29;42.60;;;35.23;;
35462;SDS011;21578;47.892;9.970;2022-08-19T20:52:18;43.00;;;34.40;;
35462;SDS011;21578;47.892;9.970;2022-08-19T20:57:05;40.90;;;33.00;;
35462;SDS011;21578;47.892;9.970;2022-08-19T21:01:52;40.70;;;33.37;;
35462;SDS011;21578;47.892;9.970;2022-08-19T21:06:39;41.53;;;33.00;;
35462;SDS011;21578;47.892;9.970;2022-08-19T21:11:28;43.73;;;34.57;;
35462;SDS011;21578;47.892;9.970;2022-08-19T21:16:16;39.37;;;32.97;;
35462;SDS011;21578;47.892;9.970;2022-08-19T21:21:03;39.10;;;32.50;;
35462;SDS011;21578;47.892;9.970;2022-08-19T21:25:50;40.60;;;33.70;;
35462;SDS011;21578;47.892;9.970;2022-08-19T21:30:40;39.70;;;32.20;;
35462;SDS011;21578;47.892;9.970;2022-08-19T21:35:27;38.20;;;32.77;;
35462;SDS011;21578;47.892;9.970;2022-08-19T21:40:14;41.50;;;33.23;;
35462;SDS011;21578;47.892;9.970;2022-08-19T21:45:02;41.57;;;33.47;;
35462;SDS011;21578;47.892;9.970;2022-08-19T21:49:51;38.87;;;32.20;;
35462;SDS011;21578;47.892;9.970;2022-08-19T21:54:38;41.17;;;32.97;;
35462;SDS011;21578;47.892;9.970;2022-08-19T21:59:24;39.57;;;32.67;;
35462;SDS011;21578;47.892;9.970;2022-08-19T22:04:11;38.53;;;32.20;;
35462;SDS011;21578;47.892;9.970;2022-08-19T22:08:59;40.80;;;32.90;;
35462;SDS011;21578;47.892;9.970;2022-08-19T22:13:46;40.47;;;34.37;;
35462;SDS011;21578;47.892;9.970;2022-08-19T22:18:37;41.63;;;34.00;;
35462;SDS011;21578;47.892;9.970;2022-08-19T22:23:24;40.27;;;33.73;;
35462;SDS011;21578;47.892;9.970;2022-08-19T22:28:13;42.53;;;33.67;;
35462;SDS011;21578;47.892;9.970;2022-08-19T22:33:03;39.90;;;33.03;;
35462;SDS011;21578;47.892;9.970;2022-08-19T22:37:53;44.27;;;33.33;;
35462;SDS011;21578;47.892;9.970;2022-08-19T22:42:40;42.97;;;32.57;;
35462;SDS011;21578;47.892;9.970;2022-08-19T22:47:28;38.50;;;32.30;;
35462;SDS011;21578;47.892;9.970;2022-08-19T22:52:15;38.47;;;30.53;;
35462;SDS011;21578;47.892;9.970;2022-08-19T22:57:02;37.23;;;31.83;;
35462;SDS011;21578;47.892;9.970;2022-08-19T23:01:49;35.60;;;30.77;;
35462;SDS011;21578;47.892;9.970;2022-08-19T23:06:39;37.03;;;31.60;;
35462;SDS011;21578;47.892;9.970;2022-08-19T23:11:26;37.17;;;31.80;;
35462;SDS011;21578;47.892;9.970;2022-08-19T23:16:13;36.70;;;29.20;;
35462;SDS011;21578;47.892;9.970;2022-08-19T23:21:00;36.10;;;29.77;;
35462;SDS011;21578;47.892;9.970;2022-08-19T23:25:48;34.23;;;29.23;;
35462;SDS011;21578;47.892;9.970;2022-08-19T23:30:37;32.93;;;28.27;;
35462;SDS011;21578;47.892;9.970;2022-08-19T23:35:30;37.90;;;30.70;;
35462;SDS011;21578;47.892;9.970;2022-08-19T23:40:18;34.43;;;28.47;;
35462;SDS011;21578;47.892;9.970;2022-08-19T23:45:08;32.67;;;28.17;;
35462;SDS011;21578;47.892;9.970;2022-08-19T23:49:55;34.97;;;28.40;;
35462;SDS011;21578;47.892;9.970;2022-08-19T23:54:43;34.50;;;28.00;;
35462;SDS011;21578;47.892;9.970;2022-08-19T23:59:29;34.17;;;28.67;;
